createdAt,value
2023-04-04T00:00:49.556Z,-0.59
2023-04-04T00:01:49.583Z,-0.61
2023-04-04T00:02:49.840Z,-0.63
2023-04-04T00:03:49.787Z,-0.66
2023-04-04T00:04:49.626Z,-0.70
2023-04-04T00:05:49.629Z,-0.72
2023-04-04T00:06:49.633Z,-0.77
2023-04-04T00:07:49.649Z,-0.78
2023-04-04T00:08:49.650Z,-0.82
2023-04-04T00:09:49.682Z,-0.84
2023-04-04T00:10:49.675Z,-0.88
2023-04-04T00:11:49.701Z,-0.88
2023-04-04T00:12:49.706Z,-0.91
2023-04-04T00:13:49.723Z,-0.93
2023-04-04T00:14:49.739Z,-0.95
2023-04-04T00:15:49.773Z,-0.97
2023-04-04T00:16:49.728Z,-0.97
2023-04-04T00:17:49.767Z,-0.96
2023-04-04T00:18:49.754Z,-0.97
2023-04-04T00:19:49.808Z,-0.96
2023-04-04T00:20:49.797Z,-0.96
2023-04-04T00:21:49.795Z,-0.97
2023-04-04T00:22:49.811Z,-0.99
2023-04-04T00:23:49.815Z,-1.00
2023-04-04T00:24:49.854Z,-1.01
2023-04-04T00:25:49.846Z,-1.03
2023-04-04T00:26:49.858Z,-1.07
2023-04-04T00:27:49.865Z,-1.07
2023-04-04T00:28:49.891Z,-1.07
2023-04-04T00:29:49.908Z,-1.11
2023-04-04T00:30:49.904Z,-1.12
2023-04-04T00:31:49.973Z,-1.13
2023-04-04T00:32:49.972Z,-1.14
2023-04-04T00:33:49.966Z,-1.17
2023-04-04T00:34:49.991Z,-1.16
2023-04-04T00:35:49.992Z,-1.17
2023-04-04T00:36:49.988Z,-1.18
2023-04-04T00:37:49.993Z,-1.20
2023-04-04T00:38:50.009Z,-1.19
2023-04-04T00:39:50.148Z,-1.20
2023-04-04T00:40:50.088Z,-1.22
2023-04-04T00:41:50.052Z,-1.22
2023-04-04T00:42:50.044Z,-1.24
2023-04-04T00:43:50.063Z,-1.25
2023-04-04T00:44:50.070Z,-1.28
2023-04-04T00:45:50.146Z,-1.30
2023-04-04T00:46:50.097Z,-1.31
2023-04-04T00:47:50.200Z,-1.33
2023-04-04T00:48:50.122Z,-1.35
2023-04-04T00:49:50.157Z,-1.36
2023-04-04T00:50:50.145Z,-1.36
2023-04-04T00:51:50.168Z,-1.39
2023-04-04T00:52:50.197Z,-1.42
2023-04-04T00:53:50.303Z,-1.45
2023-04-04T00:54:50.200Z,-1.46
2023-04-04T00:55:50.213Z,-1.48
2023-04-04T00:56:50.242Z,-1.51
2023-04-04T00:57:50.241Z,-1.52
2023-04-04T00:58:50.322Z,-1.53
2023-04-04T00:59:50.253Z,-1.55
2023-04-04T01:00:50.288Z,-1.56
2023-04-04T01:01:50.353Z,-1.55
2023-04-04T01:02:50.337Z,-1.56
2023-04-04T01:03:50.326Z,-1.57
2023-04-04T01:04:50.308Z,-1.60
2023-04-04T01:05:50.304Z,-1.59
2023-04-04T01:06:50.341Z,-1.59
2023-04-04T01:07:50.342Z,-1.61
2023-04-04T01:08:50.349Z,-1.64
2023-04-04T01:09:50.373Z,-1.66
2023-04-04T01:10:50.368Z,-1.64
2023-04-04T01:11:50.386Z,-1.64
2023-04-04T01:12:50.402Z,-1.66
2023-04-04T01:13:50.411Z,-1.66
2023-04-04T01:14:50.427Z,-1.67
2023-04-04T01:15:50.453Z,-1.66
2023-04-04T01:16:50.499Z,-1.66
2023-04-04T01:17:50.497Z,-1.67
2023-04-04T01:18:50.492Z,-1.68
2023-04-04T01:19:50.465Z,-1.68
2023-04-04T01:20:50.493Z,-1.69
2023-04-04T01:21:50.520Z,-1.71
2023-04-04T01:22:50.531Z,-1.72
2023-04-04T01:23:50.531Z,-1.74
2023-04-04T01:24:50.556Z,-1.77
2023-04-04T01:25:50.548Z,-1.77
2023-04-04T01:26:50.597Z,-1.79
2023-04-04T01:28:10.563Z,-1.80
2023-04-04T01:29:10.521Z,-1.81
2023-04-04T01:30:10.552Z,-1.82
2023-04-04T01:31:10.625Z,-1.82
2023-04-04T01:32:10.530Z,-1.80
2023-04-04T01:33:10.720Z,-1.79
2023-04-04T01:34:10.500Z,-1.81
2023-04-04T01:35:10.562Z,-1.82
2023-04-04T01:36:10.600Z,-1.82
2023-04-04T01:37:10.550Z,-1.83
2023-04-04T01:38:10.534Z,-1.84
2023-04-04T01:39:10.526Z,-1.87
2023-04-04T01:40:10.526Z,-1.90
2023-04-04T01:41:10.583Z,-1.92
2023-04-04T01:42:10.559Z,-1.95
2023-04-04T01:43:10.549Z,-1.96
2023-04-04T01:44:10.552Z,-1.97
2023-04-04T01:45:10.545Z,-1.97
2023-04-04T01:46:10.584Z,-1.96
2023-04-04T01:47:10.561Z,-1.99
2023-04-04T01:48:10.554Z,-2.00
2023-04-04T01:49:11.216Z,-2.03
2023-04-04T01:50:10.583Z,-2.04
2023-04-04T01:51:10.564Z,-2.07
2023-04-04T01:52:10.581Z,-2.07
2023-04-04T01:53:10.587Z,-2.06
2023-04-04T01:54:10.537Z,-2.07
2023-04-04T01:55:10.573Z,-2.05
2023-04-04T01:56:10.582Z,-2.01
2023-04-04T01:57:10.568Z,-2.00
2023-04-04T01:58:10.580Z,-2.00
2023-04-04T01:59:10.625Z,-1.99
2023-04-04T02:00:10.603Z,-1.98
2023-04-04T02:01:10.615Z,-1.98
2023-04-04T02:02:10.562Z,-1.96
2023-04-04T02:03:10.551Z,-1.97
2023-04-04T02:04:10.607Z,-1.97
2023-04-04T02:05:10.712Z,-1.97
2023-04-04T02:06:10.723Z,-1.96
2023-04-04T02:07:10.746Z,-1.98
2023-04-04T02:08:10.759Z,-1.99
2023-04-04T02:09:10.767Z,-1.99
2023-04-04T02:10:10.755Z,-1.98
2023-04-04T02:11:10.761Z,-2.01
2023-04-04T02:12:10.831Z,-2.02
2023-04-04T02:13:10.814Z,-2.05
2023-04-04T02:14:10.794Z,-2.07
2023-04-04T02:15:10.839Z,-2.09
2023-04-04T02:16:10.844Z,-2.08
2023-04-04T02:17:10.846Z,-2.08
2023-04-04T02:18:10.842Z,-2.09
2023-04-04T02:19:10.859Z,-2.06
2023-04-04T02:20:10.857Z,-2.05
2023-04-04T02:21:10.926Z,-2.06
2023-04-04T02:22:10.911Z,-2.08
2023-04-04T02:23:10.944Z,-2.09
2023-04-04T02:24:10.919Z,-2.10
2023-04-04T02:25:10.952Z,-2.13
2023-04-04T02:26:10.939Z,-2.14
2023-04-04T02:27:10.955Z,-2.16
2023-04-04T02:28:10.984Z,-2.18
2023-04-04T02:29:11.003Z,-2.17
2023-04-04T02:30:11.006Z,-2.17
2023-04-04T02:31:11.027Z,-2.19
2023-04-04T02:32:11.004Z,-2.20
2023-04-04T02:33:11.045Z,-2.20
2023-04-04T02:34:11.048Z,-2.21
2023-04-04T02:35:11.073Z,-2.20
2023-04-04T02:36:11.145Z,-2.21
2023-04-04T02:37:11.097Z,-2.23
2023-04-04T02:38:11.124Z,-2.26
2023-04-04T02:39:11.118Z,-2.27
2023-04-04T02:40:11.136Z,-2.27
2023-04-04T02:41:11.130Z,-2.28
2023-04-04T02:42:11.138Z,-2.30
2023-04-04T02:43:11.138Z,-2.34
2023-04-04T02:44:11.174Z,-2.36
2023-04-04T02:45:11.200Z,-2.36
2023-04-04T02:46:21.201Z,-2.36
2023-04-04T02:47:11.309Z,-2.36
2023-04-04T02:48:11.257Z,-2.35
2023-04-04T02:49:11.190Z,-2.37
2023-04-04T02:50:11.180Z,-2.41
2023-04-04T02:51:11.190Z,-2.42
2023-04-04T02:52:11.196Z,-2.41
2023-04-04T02:53:11.198Z,-2.40
2023-04-04T02:54:11.182Z,-2.39
2023-04-04T02:55:11.178Z,-2.41
2023-04-04T02:56:11.220Z,-2.41
2023-04-04T02:57:11.178Z,-2.42
2023-04-04T02:58:11.199Z,-2.43
2023-04-04T02:59:11.255Z,-2.45
2023-04-04T03:00:11.194Z,-2.46
2023-04-04T03:01:11.247Z,-2.45
2023-04-04T03:02:11.306Z,-2.47
2023-04-04T03:03:11.429Z,-2.50
2023-04-04T03:04:11.249Z,-2.51
2023-04-04T03:05:11.203Z,-2.57
2023-04-04T03:06:11.188Z,-2.58
2023-04-04T03:07:11.194Z,-2.60
2023-04-04T03:08:11.208Z,-2.61
2023-04-04T03:09:11.215Z,-2.61
2023-04-04T03:10:11.213Z,-2.61
2023-04-04T03:11:11.216Z,-2.64
2023-04-04T03:12:11.201Z,-2.65
2023-04-04T03:13:11.217Z,-2.67
2023-04-04T03:14:11.251Z,-2.65
2023-04-04T03:15:11.203Z,-2.66
2023-04-04T03:16:11.234Z,-2.66
2023-04-04T03:17:11.237Z,-2.68
2023-04-04T03:18:11.285Z,-2.70
2023-04-04T03:19:11.243Z,-2.67
2023-04-04T03:20:11.243Z,-2.66
2023-04-04T03:21:11.220Z,-2.68
2023-04-04T03:22:11.229Z,-2.69
2023-04-04T03:23:11.232Z,-2.70
2023-04-04T03:24:11.255Z,-2.70
2023-04-04T03:25:11.227Z,-2.69
2023-04-04T03:26:11.227Z,-2.69
2023-04-04T03:27:11.219Z,-2.70
2023-04-04T03:28:11.249Z,-2.71
2023-04-04T03:29:11.248Z,-2.71
2023-04-04T03:30:11.265Z,-2.72
2023-04-04T03:31:11.250Z,-2.74
2023-04-04T03:32:11.322Z,-2.76
2023-04-04T03:33:11.288Z,-2.78
2023-04-04T03:34:11.307Z,-2.79
2023-04-04T03:35:11.314Z,-2.81
2023-04-04T03:36:11.378Z,-2.82
2023-04-04T03:37:11.340Z,-2.83
2023-04-04T03:38:11.420Z,-2.82
2023-04-04T03:39:11.362Z,-2.80
2023-04-04T03:40:11.344Z,-2.80
2023-04-04T03:41:11.370Z,-2.82
2023-04-04T03:42:11.376Z,-2.84
2023-04-04T03:43:11.419Z,-2.86
2023-04-04T03:44:11.430Z,-2.87
2023-04-04T03:45:11.437Z,-2.90
2023-04-04T03:46:11.475Z,-2.91
2023-04-04T03:47:11.438Z,-2.93
2023-04-04T03:48:11.454Z,-2.95
2023-04-04T03:49:11.475Z,-2.96
2023-04-04T03:50:11.487Z,-2.96
2023-04-04T03:51:11.466Z,-2.96
2023-04-04T03:52:11.485Z,-2.98
2023-04-04T03:53:11.481Z,-3.00
2023-04-04T03:54:11.534Z,-3.04
2023-04-04T03:55:11.510Z,-3.03
2023-04-04T03:56:11.524Z,-3.05
2023-04-04T03:57:11.526Z,-3.06
2023-04-04T03:58:11.567Z,-3.05
2023-04-04T03:59:11.584Z,-3.06
2023-04-04T04:00:11.573Z,-3.06
2023-04-04T04:01:11.578Z,-3.10
2023-04-04T04:02:11.647Z,-3.10
2023-04-04T04:03:11.830Z,-3.10
2023-04-04T04:04:11.674Z,-3.12
2023-04-04T04:05:11.621Z,-3.13
2023-04-04T04:06:11.645Z,-3.16
2023-04-04T04:07:11.656Z,-3.15
2023-04-04T04:08:11.684Z,-3.15
2023-04-04T04:09:11.721Z,-3.15
2023-04-04T04:10:11.700Z,-3.14
2023-04-04T04:11:11.743Z,-3.15
2023-04-04T04:12:11.706Z,-3.17
2023-04-04T04:13:11.759Z,-3.18
2023-04-04T04:14:11.738Z,-3.20
2023-04-04T04:15:11.800Z,-3.20
2023-04-04T04:16:11.775Z,-3.21
2023-04-04T04:17:11.793Z,-3.22
2023-04-04T04:18:11.783Z,-3.22
2023-04-04T04:19:11.814Z,-3.22
2023-04-04T04:20:11.814Z,-3.22
2023-04-04T04:21:11.805Z,-3.23
2023-04-04T04:22:11.829Z,-3.23
2023-04-04T04:23:11.845Z,-3.26
2023-04-04T04:24:11.852Z,-3.24
2023-04-04T04:25:11.881Z,-3.26
2023-04-04T04:26:11.875Z,-3.27
2023-04-04T04:27:11.886Z,-3.28
2023-04-04T04:28:11.894Z,-3.31
2023-04-04T04:29:11.904Z,-3.31
2023-04-04T04:30:11.963Z,-3.33
2023-04-04T04:31:11.992Z,-3.33
2023-04-04T04:32:11.947Z,-3.34
2023-04-04T04:33:11.999Z,-3.33
2023-04-04T04:34:12.002Z,-3.34
2023-04-04T04:35:12.001Z,-3.35
2023-04-04T04:36:12.046Z,-3.34
2023-04-04T04:37:12.060Z,-3.34
2023-04-04T04:38:12.020Z,-3.33
2023-04-04T04:39:12.027Z,-3.35
2023-04-04T04:40:12.060Z,-3.35
2023-04-04T04:41:12.078Z,-3.35
2023-04-04T04:42:12.079Z,-3.36
2023-04-04T04:43:12.083Z,-3.36
2023-04-04T04:44:12.090Z,-3.38
2023-04-04T04:45:12.140Z,-3.38
2023-04-04T04:46:12.150Z,-3.39
2023-04-04T04:47:12.122Z,-3.39
2023-04-04T04:48:12.164Z,-3.39
2023-04-04T04:49:12.239Z,-3.41
2023-04-04T04:50:12.169Z,-3.41
2023-04-04T04:51:12.185Z,-3.42
2023-04-04T04:52:12.185Z,-3.42
2023-04-04T04:53:12.223Z,-3.42
2023-04-04T04:54:12.254Z,-3.43
2023-04-04T04:55:12.209Z,-3.42
2023-04-04T04:56:12.268Z,-3.41
2023-04-04T04:57:12.258Z,-3.42
2023-04-04T04:58:12.242Z,-3.41
2023-04-04T04:59:12.299Z,-3.40
2023-04-04T05:00:12.321Z,-3.41
2023-04-04T05:01:12.372Z,-3.42
2023-04-04T05:02:12.399Z,-3.43
2023-04-04T05:03:12.383Z,-3.42
2023-04-04T05:04:12.332Z,-3.42
2023-04-04T05:05:12.325Z,-3.42
2023-04-04T05:06:12.392Z,-3.42
2023-04-04T05:07:12.369Z,-3.43
2023-04-04T05:08:12.371Z,-3.41
2023-04-04T05:09:12.437Z,-3.41
2023-04-04T05:10:12.398Z,-3.41
2023-04-04T05:11:12.427Z,-3.41
2023-04-04T05:12:12.435Z,-3.41
2023-04-04T05:13:12.448Z,-3.42
2023-04-04T05:14:12.449Z,-3.42
2023-04-04T05:15:12.464Z,-3.42
2023-04-04T05:16:12.494Z,-3.43
2023-04-04T05:17:12.482Z,-3.44
2023-04-04T05:18:12.497Z,-3.44
2023-04-04T05:19:12.497Z,-3.44
2023-04-04T05:20:12.513Z,-3.44
2023-04-04T05:21:12.519Z,-3.45
2023-04-04T05:22:12.530Z,-3.45
2023-04-04T05:23:12.558Z,-3.44
2023-04-04T05:24:12.555Z,-3.42
2023-04-04T05:25:12.565Z,-3.41
2023-04-04T05:26:12.576Z,-3.40
2023-04-04T05:27:12.602Z,-3.40
2023-04-04T05:28:12.632Z,-3.38
2023-04-04T05:29:12.634Z,-3.35
2023-04-04T05:30:12.662Z,-3.30
2023-04-04T05:31:12.667Z,-3.27
2023-04-04T05:32:12.688Z,-3.26
2023-04-04T05:33:12.722Z,-3.24
2023-04-04T05:34:12.691Z,-3.19
2023-04-04T05:35:12.724Z,-3.19
2023-04-04T05:36:12.792Z,-3.16
2023-04-04T05:37:12.701Z,-3.14
2023-04-04T05:38:12.739Z,-3.12
2023-04-04T05:39:12.732Z,-3.09
2023-04-04T05:40:12.794Z,-3.06
2023-04-04T05:41:12.759Z,-3.04
2023-04-04T05:42:12.785Z,-3.02
2023-04-04T05:43:12.784Z,-2.98
2023-04-04T05:44:12.799Z,-2.95
2023-04-04T05:45:12.839Z,-2.93
2023-04-04T05:46:12.865Z,-2.90
2023-04-04T05:47:12.826Z,-2.87
2023-04-04T05:48:12.840Z,-2.84
2023-04-04T05:49:12.880Z,-2.83
2023-04-04T05:50:12.914Z,-2.79
2023-04-04T05:51:12.931Z,-2.75
2023-04-04T05:52:12.884Z,-2.74
2023-04-04T05:53:12.928Z,-2.71
2023-04-04T05:54:12.951Z,-2.66
2023-04-04T05:55:12.939Z,-2.62
2023-04-04T05:56:12.946Z,-2.58
2023-04-04T05:57:12.951Z,-2.53
2023-04-04T05:58:13.669Z,-2.49
2023-04-04T05:59:13.005Z,-2.43
2023-04-04T06:00:12.990Z,-2.38
2023-04-04T06:01:13.038Z,-2.33
2023-04-04T06:02:13.067Z,-2.28
2023-04-04T06:03:13.151Z,-2.25
2023-04-04T06:04:13.058Z,-2.20
2023-04-04T06:05:13.050Z,-2.15
2023-04-04T06:06:13.127Z,-2.11
2023-04-04T06:07:13.073Z,-2.06
2023-04-04T06:08:13.119Z,-2.04
2023-04-04T06:09:13.110Z,-2.00
2023-04-04T06:10:13.117Z,-1.96
2023-04-04T06:11:13.304Z,-1.92
2023-04-04T06:12:13.135Z,-1.88
2023-04-04T06:13:13.156Z,-1.83
2023-04-04T06:14:15.100Z,-1.81
2023-04-04T06:15:13.186Z,-1.77
2023-04-04T06:16:13.245Z,-1.71
2023-04-04T06:17:13.226Z,-1.67
2023-04-04T06:18:13.232Z,-1.62
2023-04-04T06:19:13.219Z,-1.59
2023-04-04T06:20:13.269Z,-1.55
2023-04-04T06:21:13.250Z,-1.53
2023-04-04T06:22:13.293Z,-1.50
2023-04-04T06:23:13.288Z,-1.48
2023-04-04T06:24:13.279Z,-1.45
2023-04-04T06:25:13.306Z,-1.42
2023-04-04T06:26:13.300Z,-1.39
2023-04-04T06:27:13.343Z,-1.35
2023-04-04T06:28:13.333Z,-1.32
2023-04-04T06:29:13.335Z,-1.29
2023-04-04T06:30:13.349Z,-1.24
2023-04-04T06:31:13.394Z,-1.20
2023-04-04T06:32:13.392Z,-1.18
2023-04-04T06:33:13.387Z,-1.15
2023-04-04T06:34:13.399Z,-1.11
2023-04-04T06:35:13.412Z,-1.09
2023-04-04T06:36:13.480Z,-1.06
2023-04-04T06:37:13.444Z,-1.03
2023-04-04T06:38:13.449Z,-1.02
2023-04-04T06:39:13.514Z,-0.97
2023-04-04T06:40:13.474Z,-0.94
2023-04-04T06:41:13.477Z,-0.91
2023-04-04T06:42:13.503Z,-0.88
2023-04-04T06:43:13.574Z,-0.84
2023-04-04T06:44:13.537Z,-0.80
2023-04-04T06:45:13.523Z,-0.77
2023-04-04T06:46:13.568Z,-0.75
2023-04-04T06:47:13.562Z,-0.70
2023-04-04T06:48:13.560Z,-0.68
2023-04-04T06:49:13.620Z,-0.64
2023-04-04T06:50:13.625Z,-0.61
2023-04-04T06:51:13.617Z,-0.58
2023-04-04T06:52:13.601Z,-0.53
2023-04-04T06:53:13.627Z,-0.50
2023-04-04T06:54:13.626Z,-0.46
2023-04-04T06:55:13.673Z,-0.42
2023-04-04T06:56:13.719Z,-0.39
2023-04-04T06:57:13.669Z,-0.35
2023-04-04T06:58:13.702Z,-0.33
2023-04-04T06:59:13.824Z,-0.30
2023-04-04T07:00:13.712Z,-0.27
2023-04-04T07:01:13.783Z,-0.20
2023-04-04T07:02:13.753Z,-0.15
2023-04-04T07:03:13.840Z,-0.09
2023-04-04T07:04:13.749Z,-0.04
2023-04-04T07:05:13.763Z,0.02
2023-04-04T07:06:13.773Z,0.07
2023-04-04T07:07:13.780Z,0.12
2023-04-04T07:08:13.802Z,0.19
2023-04-04T07:09:25.978Z,0.27
2023-04-04T07:10:13.803Z,0.33
2023-04-04T07:11:13.813Z,0.40
2023-04-04T07:12:13.798Z,0.48
2023-04-04T07:13:13.814Z,0.57
2023-04-04T07:14:13.836Z,0.65
2023-04-04T07:15:13.824Z,0.76
2023-04-04T07:16:13.865Z,0.85
2023-04-04T07:17:24.040Z,0.96
2023-04-04T07:18:13.812Z,1.11
2023-04-04T07:19:13.803Z,1.31
2023-04-04T07:20:13.827Z,1.56
2023-04-04T07:21:13.832Z,1.91
2023-04-04T07:22:13.850Z,2.22
2023-04-04T07:23:13.809Z,2.57
2023-04-04T07:24:13.830Z,2.91
2023-04-04T07:25:13.845Z,3.28
2023-04-04T07:26:13.820Z,3.47
2023-04-04T07:27:13.830Z,3.70
2023-04-04T07:28:34.797Z,3.68
2023-04-04T07:29:34.747Z,3.65
2023-04-04T07:30:34.740Z,3.54
2023-04-04T07:31:34.751Z,3.42
2023-04-04T07:32:34.765Z,3.30
2023-04-04T07:33:34.741Z,3.02
2023-04-04T07:34:34.730Z,2.76
2023-04-04T07:35:34.776Z,2.54
2023-04-04T07:36:34.754Z,2.34
2023-04-04T07:37:34.734Z,2.20
2023-04-04T07:38:34.740Z,2.10
2023-04-04T07:39:34.766Z,2.06
2023-04-04T07:40:34.766Z,2.03
2023-04-04T07:41:34.752Z,2.04
2023-04-04T07:42:34.730Z,2.07
2023-04-04T07:43:34.752Z,2.13
2023-04-04T07:44:34.738Z,2.19
2023-04-04T07:45:34.770Z,2.24
2023-04-04T07:46:34.875Z,2.26
2023-04-04T07:47:34.767Z,2.24
2023-04-04T07:48:34.758Z,2.27
2023-04-04T07:49:34.747Z,2.30
2023-04-04T07:50:34.757Z,2.34
2023-04-04T07:51:34.765Z,2.34
2023-04-04T07:52:34.763Z,2.32
2023-04-04T07:53:34.740Z,2.31
2023-04-04T07:54:34.746Z,2.34
2023-04-04T07:55:34.754Z,2.36
2023-04-04T07:56:34.766Z,2.36
2023-04-04T07:57:34.766Z,2.36
2023-04-04T07:58:34.752Z,2.34
2023-04-04T07:59:34.747Z,2.32
2023-04-04T08:00:34.756Z,2.33
2023-04-04T08:01:34.754Z,2.34
2023-04-04T08:02:34.864Z,2.37
2023-04-04T08:03:35.164Z,2.37
2023-04-04T08:04:34.920Z,2.40
2023-04-04T08:05:34.903Z,2.40
2023-04-04T08:06:34.910Z,2.46
2023-04-04T08:07:34.949Z,2.53
2023-04-04T08:08:35.005Z,2.59
2023-04-04T08:09:34.953Z,2.66
2023-04-04T08:10:34.988Z,2.73
2023-04-04T08:11:34.996Z,2.77
2023-04-04T08:12:34.991Z,2.79
2023-04-04T08:13:35.041Z,2.81
2023-04-04T08:14:35.015Z,2.85
2023-04-04T08:15:35.059Z,2.91
2023-04-04T08:16:35.041Z,2.96
2023-04-04T08:17:35.068Z,2.99
2023-04-04T08:18:35.085Z,3.02
2023-04-04T08:19:35.069Z,2.99
2023-04-04T08:20:35.093Z,2.99
2023-04-04T08:21:35.094Z,3.00
2023-04-04T08:22:35.114Z,3.04
2023-04-04T08:23:35.162Z,3.08
2023-04-04T08:24:35.145Z,3.12
2023-04-04T08:25:35.279Z,3.15
2023-04-04T08:26:35.153Z,3.14
2023-04-04T08:27:35.169Z,3.16
2023-04-04T08:28:35.238Z,3.20
2023-04-04T08:29:35.213Z,3.28
2023-04-04T08:30:35.238Z,3.36
2023-04-04T08:31:35.328Z,3.42
2023-04-04T08:32:35.259Z,3.46
2023-04-04T08:33:46.747Z,3.45
2023-04-04T08:34:35.262Z,3.44
2023-04-04T08:35:35.311Z,3.44
2023-04-04T08:36:35.299Z,3.44
2023-04-04T08:37:35.293Z,3.45
2023-04-04T08:38:35.320Z,3.49
2023-04-04T08:39:35.299Z,3.53
2023-04-04T08:40:35.283Z,3.56
2023-04-04T08:41:35.305Z,3.58
2023-04-04T08:42:35.293Z,3.61
2023-04-04T08:43:35.300Z,3.62
2023-04-04T08:44:35.308Z,3.63
2023-04-04T08:45:35.300Z,3.63
2023-04-04T08:46:35.305Z,3.69
2023-04-04T08:47:35.319Z,3.74
2023-04-04T08:48:35.321Z,3.78
2023-04-04T08:49:35.325Z,3.81
2023-04-04T08:50:35.310Z,3.85
2023-04-04T08:51:35.299Z,3.95
2023-04-04T08:52:35.310Z,4.05
2023-04-04T08:53:35.336Z,4.16
2023-04-04T08:54:35.345Z,4.24
2023-04-04T08:55:35.319Z,4.33
2023-04-04T08:56:35.342Z,4.35
2023-04-04T08:57:35.350Z,4.37
2023-04-04T08:58:35.349Z,4.42
2023-04-04T08:59:35.542Z,4.46
2023-04-04T09:00:35.317Z,4.46
2023-04-04T09:01:35.289Z,4.43
2023-04-04T09:02:35.377Z,4.47
2023-04-04T09:03:35.361Z,4.59
2023-04-04T09:04:35.312Z,4.75
2023-04-04T09:05:35.330Z,4.89
2023-04-04T09:06:35.336Z,5.03
2023-04-04T09:08:35.405Z,5.14
2023-04-04T09:09:35.389Z,5.21
2023-04-04T09:10:35.401Z,5.29
2023-04-04T09:11:35.415Z,5.25
2023-04-04T09:12:35.440Z,5.26
2023-04-04T09:13:35.424Z,5.34
2023-04-04T09:14:35.423Z,5.58
2023-04-04T09:15:35.444Z,5.95
2023-04-04T09:16:35.467Z,6.33
2023-04-04T09:17:35.460Z,6.57
2023-04-04T09:18:35.524Z,6.82
2023-04-04T09:19:35.493Z,7.08
2023-04-04T09:20:35.523Z,7.12
2023-04-04T09:21:35.554Z,6.96
2023-04-04T09:22:35.539Z,6.69
2023-04-04T09:23:35.518Z,6.66
2023-04-04T09:24:35.575Z,6.74
2023-04-04T09:25:35.540Z,6.94
2023-04-04T09:26:35.602Z,7.23
2023-04-04T09:27:35.721Z,7.59
2023-04-04T09:28:35.608Z,7.85
2023-04-04T09:29:35.644Z,7.99
2023-04-04T09:30:35.660Z,8.24
2023-04-04T09:31:35.703Z,8.50
2023-04-04T09:32:35.676Z,8.71
2023-04-04T09:33:35.685Z,8.92
2023-04-04T09:34:35.679Z,9.12
2023-04-04T09:35:35.691Z,9.09
2023-04-04T09:36:35.680Z,8.92
2023-04-04T09:37:35.704Z,8.92
2023-04-04T09:38:35.736Z,8.93
2023-04-04T09:39:35.756Z,9.07
2023-04-04T09:40:35.761Z,9.26
2023-04-04T09:41:35.757Z,9.38
2023-04-04T09:42:35.762Z,9.59
2023-04-04T09:43:35.990Z,9.78
2023-04-04T09:44:35.800Z,9.89
2023-04-04T09:45:35.826Z,10.08
2023-04-04T09:46:35.861Z,10.47
2023-04-04T09:47:35.902Z,10.81
2023-04-04T09:48:35.841Z,10.92
2023-04-04T09:49:35.866Z,11.00
2023-04-04T09:50:35.888Z,10.69
2023-04-04T09:51:35.883Z,10.15
2023-04-04T09:52:35.960Z,9.80
2023-04-04T09:53:35.908Z,9.66
2023-04-04T09:54:40.262Z,9.61
2023-04-04T09:55:35.908Z,9.73
2023-04-04T09:56:35.908Z,9.69
2023-04-04T09:57:35.948Z,9.54
2023-04-04T09:58:35.967Z,9.38
2023-04-04T09:59:35.954Z,9.48
2023-04-04T10:00:35.939Z,9.61
2023-04-04T10:01:35.959Z,9.85
2023-04-04T10:02:35.957Z,10.30
2023-04-04T10:03:35.999Z,10.76
2023-04-04T10:04:35.982Z,11.09
2023-04-04T10:05:35.914Z,11.29
2023-04-04T10:06:35.921Z,11.23
2023-04-04T10:07:35.936Z,11.20
2023-04-04T10:08:35.974Z,11.16
2023-04-04T10:09:35.961Z,11.17
2023-04-04T10:10:35.936Z,11.11
2023-04-04T10:11:35.998Z,10.93
2023-04-04T10:12:35.933Z,10.64
2023-04-04T10:13:35.954Z,10.19
2023-04-04T10:14:35.930Z,9.90
2023-04-04T10:15:35.963Z,9.80
2023-04-04T10:16:35.931Z,10.04
2023-04-04T10:17:36.000Z,10.44
2023-04-04T10:18:35.941Z,10.90
2023-04-04T10:19:35.960Z,11.07
2023-04-04T10:20:35.963Z,11.20
2023-04-04T10:21:36.026Z,11.22
2023-04-04T10:22:35.997Z,11.32
2023-04-04T10:23:35.990Z,11.45
2023-04-04T10:24:35.984Z,11.60
2023-04-04T10:25:35.990Z,11.67
2023-04-04T10:26:35.964Z,11.69
2023-04-04T10:27:35.957Z,11.66
2023-04-04T10:28:35.997Z,11.48
2023-04-04T10:29:35.973Z,11.27
2023-04-04T10:30:35.957Z,11.19
2023-04-04T10:31:36.001Z,11.21
2023-04-04T10:32:36.048Z,11.24
2023-04-04T10:33:35.976Z,11.30
2023-04-04T10:34:35.918Z,11.25
2023-04-04T10:35:36.031Z,11.26
2023-04-04T10:36:35.982Z,11.35
2023-04-04T10:37:36.003Z,11.49
2023-04-04T10:38:35.961Z,11.68
2023-04-04T10:39:35.970Z,11.81
2023-04-04T10:40:36.027Z,11.88
2023-04-04T10:41:35.964Z,12.01
2023-04-04T10:42:35.973Z,12.23
2023-04-04T10:43:35.991Z,12.04
2023-04-04T10:44:35.980Z,11.81
2023-04-04T10:45:36.002Z,11.64
2023-04-04T10:46:36.028Z,11.72
2023-04-04T10:47:36.009Z,11.85
2023-04-04T10:48:35.991Z,11.46
2023-04-04T10:49:36.021Z,10.83
2023-04-04T10:50:36.010Z,10.06
2023-04-04T10:51:45.115Z,9.51
2023-04-04T10:52:36.032Z,9.31
2023-04-04T10:53:36.025Z,9.33
2023-04-04T10:54:35.987Z,9.37
2023-04-04T10:55:35.990Z,9.66
2023-04-04T10:56:36.064Z,9.54
2023-04-04T10:57:36.000Z,9.26
2023-04-04T10:58:36.045Z,9.33
2023-04-04T10:59:36.167Z,9.70
2023-04-04T11:00:36.039Z,10.17
2023-04-04T11:01:36.010Z,10.65
2023-04-04T11:02:35.995Z,11.15
2023-04-04T11:03:36.023Z,11.67
2023-04-04T11:04:36.092Z,12.21
2023-04-04T11:05:36.008Z,12.42
2023-04-04T11:06:36.024Z,12.40
2023-04-04T11:07:36.012Z,12.37
2023-04-04T11:08:36.018Z,12.31
2023-04-04T11:09:36.013Z,12.33
2023-04-04T11:10:36.036Z,12.42
2023-04-04T11:11:36.046Z,12.28
2023-04-04T11:12:36.034Z,12.31
2023-04-04T11:13:36.047Z,12.37
2023-04-04T11:14:36.034Z,12.62
2023-04-04T11:15:36.037Z,12.92
2023-04-04T11:16:36.096Z,13.19
2023-04-04T11:17:36.037Z,13.30
2023-04-04T11:18:36.056Z,13.49
2023-04-04T11:19:36.041Z,13.65
2023-04-04T11:20:36.071Z,13.62
2023-04-04T11:21:36.029Z,13.52
2023-04-04T11:22:36.024Z,13.55
2023-04-04T11:23:36.036Z,13.57
2023-04-04T11:24:36.054Z,13.65
2023-04-04T11:25:36.075Z,13.72
2023-04-04T11:26:36.031Z,13.76
2023-04-04T11:27:36.065Z,13.96
2023-04-04T11:28:36.066Z,14.12
2023-04-04T11:29:36.070Z,14.34
2023-04-04T11:30:36.071Z,14.43
2023-04-04T11:31:36.119Z,14.38
2023-04-04T11:32:36.126Z,14.24
2023-04-04T11:33:36.117Z,14.05
2023-04-04T11:34:36.061Z,13.82
2023-04-04T11:35:36.097Z,13.35
2023-04-04T11:36:36.082Z,13.09
2023-04-04T11:37:36.067Z,12.89
2023-04-04T11:38:36.111Z,12.85
2023-04-04T11:39:36.054Z,12.82
2023-04-04T11:40:36.033Z,12.82
2023-04-04T11:41:36.089Z,12.81
2023-04-04T11:42:36.117Z,12.27
2023-04-04T11:43:36.069Z,11.50
2023-04-04T11:44:36.063Z,10.97
2023-04-04T11:45:36.078Z,10.88
2023-04-04T11:46:36.165Z,10.99
2023-04-04T11:47:36.107Z,11.15
2023-04-04T11:48:36.104Z,11.34
2023-04-04T11:49:36.081Z,11.49
2023-04-04T11:50:36.068Z,11.66
2023-04-04T11:51:36.107Z,11.78
2023-04-04T11:52:36.079Z,11.94
2023-04-04T11:53:36.091Z,12.13
2023-04-04T11:54:36.087Z,12.27
2023-04-04T11:55:36.083Z,12.61
2023-04-04T11:56:36.101Z,12.97
2023-04-04T11:57:36.088Z,13.25
2023-04-04T11:58:36.098Z,13.36
2023-04-04T11:59:36.128Z,13.51
2023-04-04T12:00:36.095Z,13.72
2023-04-04T12:01:36.116Z,13.91
2023-04-04T12:02:36.104Z,14.03
2023-04-04T12:03:36.223Z,14.05
2023-04-04T12:04:37.344Z,14.12
2023-04-04T12:05:36.192Z,14.13
2023-04-04T12:06:36.114Z,13.90
2023-04-04T12:07:36.083Z,13.86
2023-04-04T12:08:36.117Z,14.00
2023-04-04T12:09:36.110Z,14.04
2023-04-04T12:10:36.153Z,13.99
2023-04-04T12:11:36.087Z,14.06
2023-04-04T12:12:36.111Z,14.20
2023-04-04T12:13:36.139Z,14.45
2023-04-04T12:14:36.178Z,14.72
2023-04-04T12:15:36.188Z,15.09
2023-04-04T12:16:36.176Z,15.50
2023-04-04T12:17:36.213Z,15.92
2023-04-04T12:18:36.175Z,16.33
2023-04-04T12:19:36.238Z,16.44
2023-04-04T12:20:36.245Z,16.31
2023-04-04T12:21:36.241Z,16.06
2023-04-04T12:22:36.219Z,15.88
2023-04-04T12:23:36.249Z,15.92
2023-04-04T12:24:36.263Z,15.89
2023-04-04T12:25:36.295Z,15.69
2023-04-04T12:26:36.316Z,15.65
2023-04-04T12:27:36.284Z,15.61
2023-04-04T12:28:36.326Z,15.44
2023-04-04T12:29:36.582Z,15.03
2023-04-04T12:30:36.344Z,14.79
2023-04-04T12:31:36.406Z,14.76
2023-04-04T12:32:36.412Z,14.81
2023-04-04T12:33:36.434Z,14.92
2023-04-04T12:34:36.532Z,14.93
2023-04-04T12:35:36.493Z,14.95
2023-04-04T12:36:36.454Z,15.09
2023-04-04T12:37:36.443Z,15.34
2023-04-04T12:38:36.426Z,15.32
2023-04-04T12:39:36.444Z,15.28
2023-04-04T12:40:36.461Z,15.25
2023-04-04T12:41:36.516Z,15.09
2023-04-04T12:42:36.514Z,14.86
2023-04-04T12:43:36.553Z,14.54
2023-04-04T12:44:36.506Z,14.47
2023-04-04T12:45:36.671Z,14.71
2023-04-04T12:46:36.559Z,14.71
2023-04-04T12:47:36.553Z,14.40
2023-04-04T12:48:36.564Z,14.11
2023-04-04T12:49:36.573Z,13.87
2023-04-04T12:50:36.598Z,13.90
2023-04-04T12:51:36.589Z,14.01
2023-04-04T12:52:36.638Z,14.20
2023-04-04T12:53:36.608Z,14.39
2023-04-04T12:54:36.620Z,14.54
2023-04-04T12:55:36.669Z,14.60
2023-04-04T12:56:36.645Z,14.44
2023-04-04T12:57:36.775Z,14.33
2023-04-04T12:58:37.651Z,14.28
2023-04-04T12:59:36.802Z,14.30
2023-04-04T13:00:36.773Z,14.50